Time;durP1;ratioP1;P1;durP2;ratioP2;P2;SDS_P1;SDS_P2;PMS_P1;PMS_P2;Temp;Humidity;BMP_temperature;BMP_pressure;BME280_temperature;BME280_humidity;BME280_pressure;Samples;Min_cycle;Max_cycle;Signal;HPM_P1;HPM_P2
2022/07/21 00:04:15;;;;;;;17.50;9.18;;;24.00;65.10;;;;;;9178897;19;20022;-66
2022/07/21 00:07:20;;;;;;;18.20;9.95;;;23.90;64.90;;;;;;9179476;19;20360;-65
2022/07/21 00:10:27;;;;;;;18.48;9.88;;;23.90;65.00;;;;;;9183756;19;20376;-65
2022/07/21 00:13:33;;;;;;;18.83;10.38;;;23.80;65.20;;;;;;9181830;19;20014;-66
2022/07/21 00:16:39;;;;;;;19.42;10.52;;;23.80;65.30;;;;;;9181933;19;20037;-65
2022/07/21 00:19:47;;;;;;;17.73;10.63;;;23.70;65.40;;;;;;9181315;19;20373;-66
2022/07/21 00:22:52;;;;;;;18.10;10.98;;;23.70;65.70;;;;;;9182906;19;20014;-65
2022/07/21 00:25:58;;;;;;;17.13;11.02;;;23.70;66.40;;;;;;9184227;19;20058;-64
2022/07/21 00:29:03;;;;;;;21.45;11.43;;;23.60;65.90;;;;;;9183197;19;20029;-65
2022/07/21 00:32:09;;;;;;;14.88;10.75;;;23.60;66.00;;;;;;9183711;19;20017;-66
2022/07/21 00:35:17;;;;;;;25.23;12.68;;;23.50;66.10;;;;;;9182778;19;20025;-66
2022/07/21 00:38:24;;;;;;;17.35;11.82;;;23.50;66.40;;;;;;9183814;19;20086;-65
2022/07/21 00:41:29;;;;;;;21.20;11.63;;;23.40;66.30;;;;;;9181378;19;20328;-66
2022/07/21 00:44:34;;;;;;;20.50;12.80;;;23.40;66.50;;;;;;9180600;19;20018;-66
2022/07/21 00:47:40;;;;;;;20.20;12.45;;;23.30;66.60;;;;;;9183042;19;20097;-65
2022/07/21 00:50:48;;;;;;;17.25;12.23;;;23.30;66.80;;;;;;9182193;19;20019;-65
2022/07/21 00:53:53;;;;;;;28.98;14.15;;;23.20;67.00;;;;;;9178743;19;20353;-64
2022/07/21 00:56:58;;;;;;;31.48;14.10;;;23.20;67.10;;;;;;9181917;19;20021;-65
2022/07/21 01:00:05;;;;;;;23.95;13.60;;;23.10;67.30;;;;;;9181193;19;20018;-65
2022/07/21 01:03:11;;;;;;;19.92;12.13;;;23.10;67.40;;;;;;9180534;19;20011;-64
2022/07/21 01:06:19;;;;;;;20.23;11.63;;;23.00;67.50;;;;;;9173019;19;20014;-65
2022/07/21 01:09:24;;;;;;;23.30;13.68;;;23.00;67.80;;;;;;9182067;19;20029;-65
2022/07/21 01:12:30;;;;;;;23.13;13.20;;;23.00;67.80;;;;;;9181374;19;20010;-65
2022/07/21 01:15:35;;;;;;;21.08;12.77;;;22.90;67.90;;;;;;9179465;19;20022;-65
2022/07/21 01:18:40;;;;;;;21.05;12.30;;;22.90;68.00;;;;;;9178905;19;20006;-65
2022/07/21 01:21:51;;;;;;;16.52;11.20;;;22.90;68.20;;;;;;9177857;19;20018;-64
2022/07/21 01:24:56;;;;;;;19.85;12.32;;;22.80;68.50;;;;;;9180528;19;20018;-64
2022/07/21 01:28:02;;;;;;;17.50;10.23;;;22.80;68.40;;;;;;9180724;19;20010;-65
2022/07/21 01:31:07;;;;;;;15.48;10.30;;;22.70;68.40;;;;;;9180531;19;20110;-65
2022/07/21 01:34:13;;;;;;;15.13;9.48;;;22.70;68.50;;;;;;9181381;19;20010;-64
2022/07/21 01:37:23;;;;;;;22.27;10.68;;;22.70;68.70;;;;;;9180527;19;20014;-66
2022/07/21 01:43:46;;;;;;;15.05;9.43;;;22.60;68.80;;;;;;9178612;19;20018;-65
2022/07/21 01:46:54;;;;;;;14.93;8.88;;;22.60;68.90;;;;;;9179949;19;20020;-65
2022/07/21 01:49:59;;;;;;;14.45;9.05;;;22.50;69.00;;;;;;9177389;19;20018;-67
2022/07/21 01:53:07;;;;;;;16.73;9.80;;;22.50;69.00;;;;;;9177846;19;20010;-66
2022/07/21 01:56:12;;;;;;;13.13;9.00;;;22.50;69.30;;;;;;9178018;19;20035;-65
2022/07/21 01:59:17;;;;;;;13.07;8.63;;;22.40;69.20;;;;;;9177883;19;20113;-65
2022/07/21 02:02:23;;;;;;;15.27;9.80;;;22.40;69.30;;;;;;9175948;19;20018;-64
2022/07/21 02:05:28;;;;;;;13.23;9.43;;;22.40;69.40;;;;;;9171384;19;20018;-64
2022/07/21 02:08:36;;;;;;;14.43;9.70;;;22.30;69.50;;;;;;9178937;19;20850;-65
2022/07/21 02:11:41;;;;;;;17.15;9.65;;;22.30;69.70;;;;;;9178805;19;20527;-64
2022/07/21 02:14:47;;;;;;;13.57;10.27;;;22.30;69.70;;;;;;9178115;19;20029;-65
2022/07/21 02:17:52;;;;;;;14.27;9.82;;;22.30;69.70;;;;;;9177403;19;20014;-64
2022/07/21 02:20:57;;;;;;;17.85;10.75;;;22.30;69.90;;;;;;9176855;19;20367;-64
2022/07/21 02:24:06;;;;;;;14.25;9.98;;;22.20;70.00;;;;;;9178491;19;20360;-65
2022/07/21 02:27:11;;;;;;;13.45;9.75;;;22.20;70.20;;;;;;9177726;19;20022;-64
2022/07/21 02:30:16;;;;;;;17.23;9.55;;;22.20;70.20;;;;;;9179403;19;20089;-64
2022/07/21 02:33:22;;;;;;;13.50;9.38;;;22.10;70.20;;;;;;9177505;19;20011;-67
2022/07/21 02:36:27;;;;;;;11.82;8.68;;;22.20;70.40;;;;;;9183662;19;20024;-64
2022/07/21 02:39:35;;;;;;;13.52;9.23;;;22.10;70.40;;;;;;9188410;19;20014;-64
2022/07/21 02:42:40;;;;;;;11.93;8.90;;;22.10;70.60;;;;;;9182952;19;20029;-64
2022/07/21 02:45:45;;;;;;;15.55;9.20;;;22.00;70.50;;;;;;9184831;19;20018;-64
2022/07/21 02:48:50;;;;;;;12.85;8.45;;;22.00;70.60;;;;;;9185689;19;20015;-64
2022/07/21 02:51:56;;;;;;;13.10;8.38;;;22.00;70.60;;;;;;9186518;19;20017;-66
2022/07/21 02:55:04;;;;;;;11.68;8.77;;;22.00;70.70;;;;;;9187081;19;20011;-65
2022/07/21 02:58:11;;;;;;;13.45;9.52;;;22.00;71.00;;;;;;9186229;19;20468;-65
2022/07/21 03:01:18;;;;;;;15.32;10.95;;;21.90;70.90;;;;;;9185644;19;20484;-65
2022/07/21 03:04:24;;;;;;;14.32;10.93;;;21.90;70.90;;;;;;9184712;19;20356;-65
2022/07/21 03:07:29;;;;;;;18.15;11.20;;;21.90;71.00;;;;;;9182166;19;20014;-64
2022/07/21 03:10:36;;;;;;;18.83;11.30;;;21.90;71.10;;;;;;9185416;19;20014;-64
2022/07/21 03:13:42;;;;;;;18.30;11.68;;;21.90;71.30;;;;;;9184885;19;20014;-65
2022/07/21 03:16:47;;;;;;;17.40;12.77;;;21.80;71.20;;;;;;9185006;19;20028;-64
2022/07/21 03:19:52;;;;;;;16.77;12.70;;;21.80;71.30;;;;;;9186240;19;20020;-64
2022/07/21 03:22:57;;;;;;;21.98;13.05;;;21.80;71.40;;;;;;9181820;19;20013;-65
2022/07/21 03:26:05;;;;;;;19.98;12.90;;;21.80;71.50;;;;;;9186419;19;20022;-65
2022/07/21 03:29:10;;;;;;;21.92;14.13;;;21.80;71.70;;;;;;9186148;19;20341;-65
2022/07/21 03:32:15;;;;;;;21.23;13.48;;;21.80;71.70;;;;;;9183992;19;20015;-64
2022/07/21 03:35:21;;;;;;;17.83;13.32;;;21.80;71.80;;;;;;9183764;19;20022;-64
2022/07/21 03:38:26;;;;;;;19.00;13.07;;;21.80;72.50;;;;;;9184927;19;20017;-64
2022/07/21 03:41:34;;;;;;;21.40;13.27;;;21.80;71.90;;;;;;9181636;19;20006;-65
2022/07/21 03:44:39;;;;;;;17.08;13.25;;;21.70;72.10;;;;;;9183392;19;20045;-64
2022/07/21 03:47:45;;;;;;;19.40;13.05;;;21.70;72.00;;;;;;9184809;19;20045;-65
2022/07/21 03:50:51;;;;;;;20.35;14.43;;;21.70;72.10;;;;;;9184700;19;20015;-65
2022/07/21 03:53:55;;;;;;;20.98;14.43;;;21.70;72.20;;;;;;9185109;19;20015;-64
2022/07/21 03:57:03;;;;;;;18.85;13.18;;;21.70;72.30;;;;;;9182955;19;20022;-65
2022/07/21 04:00:11;;;;;;;21.27;13.98;;;21.70;72.50;;;;;;9182876;19;20551;-65
2022/07/21 04:03:16;;;;;;;21.30;13.52;;;21.70;72.50;;;;;;9180543;19;20094;-64
2022/07/21 04:06:21;;;;;;;19.15;12.73;;;21.70;72.50;;;;;;9178501;19;20475;-65
2022/07/21 04:09:26;;;;;;;18.58;12.48;;;21.60;72.50;;;;;;9182949;19;20015;-64
2022/07/21 04:12:34;;;;;;;17.23;11.95;;;21.60;72.50;;;;;;9184653;19;20029;-65
2022/07/21 04:15:40;;;;;;;14.40;10.57;;;21.60;72.70;;;;;;9183157;19;20494;-64
2022/07/21 04:18:45;;;;;;;14.02;10.05;;;21.60;72.70;;;;;;9181878;19;20018;-64
2022/07/21 04:21:50;;;;;;;14.32;9.73;;;21.50;72.70;;;;;;9181335;19;20356;-64
2022/07/21 04:24:55;;;;;;;16.75;10.68;;;21.50;72.70;;;;;;9183349;19;20021;-64
2022/07/21 04:28:02;;;;;;;13.00;9.65;;;21.50;72.80;;;;;;9183237;19;20353;-67
2022/07/21 04:31:08;;;;;;;16.08;10.68;;;21.50;72.90;;;;;;9183719;19;20014;-64
2022/07/21 04:34:13;;;;;;;19.73;10.95;;;21.40;72.90;;;;;;9181394;19;20014;-64
2022/07/21 04:37:18;;;;;;;16.30;11.30;;;21.40;72.90;;;;;;9183377;19;20017;-64
2022/07/21 04:40:23;;;;;;;16.90;12.02;;;21.40;73.00;;;;;;9180682;19;20349;-64
2022/07/21 04:43:31;;;;;;;17.83;12.82;;;21.40;73.10;;;;;;9179338;19;20404;-64
2022/07/21 04:46:36;;;;;;;20.20;12.88;;;21.40;73.30;;;;;;9182830;19;20014;-64
2022/07/21 04:49:42;;;;;;;19.50;14.18;;;21.40;73.30;;;;;;9182526;19;20014;-65
2022/07/21 04:52:47;;;;;;;20.05;13.35;;;21.40;73.30;;;;;;9180953;19;20364;-64
2022/07/21 04:55:52;;;;;;;18.17;13.82;;;21.30;73.40;;;;;;9182984;19;20030;-65
2022/07/21 04:59:01;;;;;;;21.45;14.25;;;21.30;73.40;;;;;;9180614;19;20021;-65
2022/07/21 05:02:07;;;;;;;19.27;14.57;;;21.30;73.70;;;;;;9180524;19;20107;-65
2022/07/21 05:05:12;;;;;;;19.25;14.30;;;21.30;73.60;;;;;;9176040;19;20025;-64
2022/07/21 05:08:19;;;;;;;22.70;15.65;;;21.30;73.60;;;;;;9179567;19;20010;-64
2022/07/21 05:11:24;;;;;;;20.20;14.20;;;21.30;73.70;;;;;;9182217;19;20591;-65
2022/07/21 05:14:31;;;;;;;25.92;15.60;;;21.30;73.70;;;;;;9180403;19;20014;-65
2022/07/21 05:17:37;;;;;;;23.02;16.60;;;21.30;73.80;;;;;;9181491;19;20934;-65
2022/07/21 05:20:42;;;;;;;23.80;16.58;;;21.30;73.80;;;;;;9181819;19;20014;-64
2022/07/21 05:23:48;;;;;;;26.48;17.85;;;21.30;73.90;;;;;;9178023;19;20510;-65
2022/07/21 05:26:53;;;;;;;23.27;17.02;;;21.30;74.00;;;;;;9179679;19;20015;-65
2022/07/21 05:30:00;;;;;;;28.88;18.77;;;21.30;74.10;;;;;;9182488;19;20010;-64
2022/07/21 05:33:05;;;;;;;32.03;20.52;;;21.30;74.30;;;;;;9181166;19;20014;-65
2022/07/21 05:36:11;;;;;;;31.27;20.05;;;21.20;74.10;;;;;;9177202;19;20022;-64
2022/07/21 05:39:16;;;;;;;27.65;19.35;;;21.20;74.10;;;;;;9181275;19;20016;-65
2022/07/21 05:42:21;;;;;;;27.75;19.90;;;21.20;74.10;;;;;;9179665;19;20018;-66
2022/07/21 05:45:29;;;;;;;29.45;20.50;;;21.20;74.20;;;;;;9180977;19;20054;-66
2022/07/21 05:48:34;;;;;;;29.83;20.50;;;21.20;74.30;;;;;;9178908;19;20022;-66
2022/07/21 05:51:39;;;;;;;30.27;21.67;;;21.10;74.20;;;;;;9180172;19;20021;-66
2022/07/21 05:54:44;;;;;;;29.27;22.08;;;21.10;74.90;;;;;;9180488;19;20498;-65
2022/07/21 05:57:49;;;;;;;31.42;23.27;;;21.10;74.40;;;;;;9178539;19;20022;-65
2022/07/21 06:01:13;;;;;;;38.50;22.98;;;21.10;74.50;;;;;;9178967;19;20014;-66
2022/07/21 06:04:19;;;;;;;32.00;22.77;;;21.10;74.80;;;;;;9176281;19;20022;-67
2022/07/21 06:07:24;;;;;;;29.63;21.88;;;21.10;74.60;;;;;;9174907;19;20018;-63
2022/07/21 06:10:29;;;;;;;28.98;22.13;;;21.10;74.60;;;;;;9181389;19;20077;-64
2022/07/21 06:13:34;;;;;;;30.42;22.58;;;21.10;74.60;;;;;;9182997;19;20022;-65
2022/07/21 06:16:42;;;;;;;31.52;22.83;;;21.10;74.70;;;;;;9178766;19;20018;-64
2022/07/21 06:19:47;;;;;;;32.45;22.33;;;21.10;74.80;;;;;;9175012;19;20023;-65
2022/07/21 06:22:52;;;;;;;30.48;21.38;;;21.10;74.70;;;;;;9179638;19;20022;-66
2022/07/21 06:25:57;;;;;;;31.13;22.42;;;21.10;74.70;;;;;;9175603;19;20022;-65
2022/07/21 06:29:03;;;;;;;30.85;22.88;;;21.10;74.80;;;;;;9181105;19;20082;-66
2022/07/21 06:32:11;;;;;;;32.63;21.35;;;21.10;74.90;;;;;;9179506;19;20018;-66
2022/07/21 06:35:23;;;;;;;33.30;21.88;;;21.10;75.10;;;;;;9180122;19;20038;-65
2022/07/21 06:38:28;;;;;;;32.70;20.80;;;21.10;74.90;;;;;;9179219;19;20026;-66
2022/07/21 06:41:33;;;;;;;32.17;20.98;;;21.10;75.00;;;;;;9179916;19;20846;-64
2022/07/21 06:44:45;;;;;;;30.70;20.85;;;21.10;75.00;;;;;;9179779;19;20022;-65
2022/07/21 06:48:06;;;;;;;31.23;20.80;;;21.10;75.00;;;;;;9181987;19;20112;-64
2022/07/21 06:51:11;;;;;;;30.88;20.88;;;21.10;75.40;;;;;;9177301;19;20021;-64
2022/07/21 06:54:16;;;;;;;29.70;22.02;;;21.20;75.10;;;;;;9180852;19;20729;-64
2022/07/21 06:57:21;;;;;;;30.45;20.67;;;21.20;75.10;;;;;;9182824;19;20011;-64
2022/07/21 07:00:26;;;;;;;34.55;21.58;;;21.20;75.20;;;;;;9184544;19;20048;-65
2022/07/21 07:03:34;;;;;;;29.40;20.02;;;21.20;75.20;;;;;;9185178;19;20053;-65
2022/07/21 07:06:39;;;;;;;31.10;20.90;;;21.20;75.40;;;;;;9176732;19;20019;-64
2022/07/21 07:09:44;;;;;;;29.98;21.55;;;21.30;75.30;;;;;;9186214;19;20013;-64
2022/07/21 07:12:50;;;;;;;27.52;20.70;;;21.30;75.30;;;;;;9182509;19;20018;-65
2022/07/21 07:16:15;;;;;;;24.60;17.90;;;21.30;75.40;;;;;;9181896;19;20053;-65
2022/07/21 07:19:22;;;;;;;29.77;18.52;;;21.40;75.40;;;;;;9181835;19;20010;-65
2022/07/21 07:22:27;;;;;;;26.17;18.02;;;21.40;75.40;;;;;;9185317;19;20480;-66
2022/07/21 07:25:32;;;;;;;26.27;18.75;;;21.50;75.30;;;;;;9181211;19;20017;-64
2022/07/21 07:28:38;;;;;;;24.75;18.58;;;21.50;75.20;;;;;;9180238;19;20029;-65
2022/07/21 07:31:43;;;;;;;23.23;17.25;;;21.60;75.20;;;;;;9183767;19;20033;-65
2022/07/21 07:34:51;;;;;;;26.45;18.27;;;21.60;75.20;;;;;;9186099;19;20015;-65
2022/07/21 07:37:56;;;;;;;24.30;16.58;;;21.60;75.20;;;;;;9180744;19;20018;-64
2022/07/21 07:41:01;;;;;;;22.98;16.42;;;21.70;75.20;;;;;;9183047;19;20019;-64
2022/07/21 07:44:06;;;;;;;26.75;17.25;;;21.70;75.00;;;;;;9184171;19;20011;-65
2022/07/21 07:47:11;;;;;;;28.08;17.10;;;21.70;75.00;;;;;;9183923;19;20836;-63
2022/07/21 07:50:19;;;;;;;21.83;16.08;;;21.70;74.80;;;;;;9184659;19;20013;-65
2022/07/21 07:53:24;;;;;;;23.85;17.15;;;21.70;74.90;;;;;;9182969;19;20595;-64
2022/07/21 07:56:29;;;;;;;24.67;17.63;;;21.70;74.80;;;;;;9182413;19;20014;-64
2022/07/21 07:59:35;;;;;;;25.13;17.02;;;21.80;74.80;;;;;;9183658;19;20336;-65
2022/07/21 08:02:41;;;;;;;25.42;17.88;;;21.80;74.80;;;;;;9182525;19;20052;-65
2022/07/21 08:05:49;;;;;;;25.40;17.75;;;21.70;74.80;;;;;;9170189;19;20018;-66
2022/07/21 08:08:54;;;;;;;23.58;17.13;;;21.70;74.90;;;;;;9178050;19;20011;-66
2022/07/21 08:11:59;;;;;;;27.50;17.23;;;21.80;74.90;;;;;;9181191;19;20052;-66
2022/07/21 08:15:04;;;;;;;28.40;18.85;;;21.80;74.90;;;;;;9179945;19;20361;-67
2022/07/21 08:18:10;;;;;;;30.95;19.15;;;21.80;74.80;;;;;;9179061;19;20018;-65
2022/07/21 08:21:18;;;;;;;34.72;19.73;;;21.80;74.80;;;;;;9183814;19;20317;-66
2022/07/21 08:24:23;;;;;;;31.10;20.52;;;21.70;74.90;;;;;;9181062;19;20018;-66
2022/07/21 08:27:28;;;;;;;31.67;20.60;;;21.70;74.90;;;;;;9182186;19;20018;-66
2022/07/21 08:30:33;;;;;;;32.67;20.05;;;21.70;74.80;;;;;;9182418;19;20017;-67
2022/07/21 08:33:38;;;;;;;32.78;21.75;;;21.70;74.80;;;;;;9178329;19;20021;-67
2022/07/21 08:36:46;;;;;;;36.97;21.80;;;21.70;74.90;;;;;;9181483;19;20090;-66
2022/07/21 08:39:51;;;;;;;35.75;22.60;;;21.80;75.00;;;;;;9181253;19;20014;-65
2022/07/21 08:42:57;;;;;;;46.15;23.00;;;21.70;74.90;;;;;;9180927;19;20038;-67
2022/07/21 08:46:02;;;;;;;37.05;23.25;;;21.80;75.00;;;;;;9180940;19;20074;-67
2022/07/21 08:49:08;;;;;;;36.53;22.55;;;21.80;75.00;;;;;;9180626;19;20117;-67
2022/07/21 08:52:18;;;;;;;33.20;22.10;;;21.80;75.10;;;;;;9179587;19;20011;-66
2022/07/21 08:55:23;;;;;;;35.10;21.90;;;21.80;75.20;;;;;;9180876;19;20019;-67
2022/07/21 08:58:29;;;;;;;40.63;24.25;;;21.80;75.10;;;;;;9181370;19;20491;-67
2022/07/21 09:01:34;;;;;;;47.60;23.70;;;21.80;75.10;;;;;;9180565;19;20018;-66
2022/07/21 09:04:40;;;;;;;39.30;23.77;;;21.90;75.10;;;;;;9180766;19;20078;-67
2022/07/21 09:07:57;;;;;;;35.95;23.98;;;21.90;75.00;;;;;;9176056;19;20078;-67
2022/07/21 09:11:23;;;;;;;40.75;23.85;;;22.00;75.20;;;;;;9181417;19;20015;-67
2022/07/21 09:14:31;;;;;;;39.15;25.02;;;22.00;75.10;;;;;;9182234;19;20018;-68
2022/07/21 09:17:36;;;;;;;39.30;24.33;;;22.00;74.80;;;;;;9181267;19;20010;-69
2022/07/21 09:21:02;;;;;;;39.50;26.25;;;22.10;74.90;;;;;;9179113;19;20503;-67
2022/07/21 09:24:28;;;;;;;37.35;24.15;;;22.10;74.80;;;;;;9178778;19;20019;-66
2022/07/21 09:27:34;;;;;;;39.78;25.58;;;22.10;75.00;;;;;;9179512;19;20014;-64
2022/07/21 09:30:54;;;;;;;43.30;26.23;;;22.10;74.70;;;;;;9178962;19;20011;-65
2022/07/21 09:34:01;;;;;;;38.22;25.23;;;22.10;74.90;;;;;;9178948;19;20547;-64
2022/07/21 09:37:08;;;;;;;37.70;25.63;;;22.10;74.70;;;;;;9180258;19;20081;-68
2022/07/21 09:40:17;;;;;;;35.60;25.10;;;22.10;74.70;;;;;;9178631;19;20096;-64
2022/07/21 09:43:41;;;;;;;35.58;24.65;;;22.10;74.70;;;;;;9176146;19;20018;-64
2022/07/21 09:46:46;;;;;;;43.08;25.92;;;22.20;74.90;;;;;;9179377;19;20018;-64
2022/07/21 09:49:51;;;;;;;37.00;25.25;;;22.20;74.60;;;;;;9179382;19;20371;-65
2022/07/21 09:53:17;;;;;;;34.78;23.45;;;22.30;74.70;;;;;;9175818;19;20399;-65
2022/07/21 09:56:26;;;;;;;30.55;20.27;;;22.30;74.70;;;;;;9178832;19;20078;-68
2022/07/21 09:59:31;;;;;;;28.17;18.63;;;22.50;74.80;;;;;;9178082;19;20007;-64
2022/07/21 10:02:56;;;;;;;27.67;18.27;;;22.50;74.50;;;;;;9178738;19;20018;-66
2022/07/21 10:06:02;;;;;;;24.33;17.15;;;22.70;74.30;;;;;;9173190;19;20082;-66
2022/07/21 10:09:08;;;;;;;28.83;18.75;;;22.80;74.00;;;;;;9178040;19;20018;-66
2022/07/21 10:12:19;;;;;;;24.02;17.45;;;22.90;74.00;;;;;;9175615;19;20484;-65
2022/07/21 10:15:25;;;;;;;22.00;16.88;;;23.00;73.70;;;;;;9176467;19;20026;-66
2022/07/21 10:18:35;;;;;;;34.90;18.17;;;23.10;73.60;;;;;;9177432;19;20015;-68
2022/07/21 10:21:46;;;;;;;25.55;15.75;;;23.20;73.40;;;;;;9177709;19;20010;-66
2022/07/21 10:24:52;;;;;;;22.63;15.25;;;23.20;73.00;;;;;;9177035;19;20017;-66
2022/07/21 10:28:20;;;;;;;21.10;15.35;;;23.30;72.90;;;;;;9179124;19;20018;-65
2022/07/21 10:31:28;;;;;;;21.88;15.13;;;23.40;72.80;;;;;;9178261;19;20478;-65
2022/07/21 10:34:38;;;;;;;29.05;14.82;;;23.40;72.60;;;;;;9178955;19;20459;-66
2022/07/21 10:37:48;;;;;;;19.77;14.63;;;23.40;72.40;;;;;;9178081;19;20379;-65
2022/07/21 10:40:54;;;;;;;21.60;13.23;;;23.40;72.30;;;;;;9178364;19;20342;-66
2022/07/21 10:44:40;;;;;;;21.98;12.82;;;23.50;72.10;;;;;;9178271;19;20023;-66
2022/07/21 10:47:45;;;;;;;18.00;12.77;;;23.50;72.70;;;;;;9177578;19;20365;-66
2022/07/21 10:50:53;;;;;;;22.10;12.75;;;23.50;72.00;;;;;;9175742;19;20021;-65
2022/07/21 10:54:20;;;;;;;20.33;12.43;;;23.50;71.90;;;;;;9176778;19;20021;-66
2022/07/21 10:57:30;;;;;;;18.15;11.32;;;23.50;71.90;;;;;;9181568;19;20011;-65
2022/07/21 11:00:39;;;;;;;19.25;11.35;;;23.50;71.90;;;;;;9186952;19;20011;-66
2022/07/21 11:03:45;;;;;;;16.30;11.30;;;23.50;71.80;;;;;;9185029;19;20018;-66
2022/07/21 11:06:52;;;;;;;22.45;11.45;;;23.50;71.70;;;;;;9177427;19;20026;-65
2022/07/21 11:10:16;;;;;;;16.15;11.43;;;23.60;71.70;;;;;;9184181;19;20019;-66
2022/07/21 11:13:25;;;;;;;22.67;12.07;;;23.60;71.60;;;;;;9183119;19;20022;-67
2022/07/21 11:17:09;;;;;;;18.45;12.48;;;23.70;71.50;;;;;;9184156;19;20026;-65
2022/07/21 11:20:17;;;;;;;20.03;11.37;;;23.70;71.60;;;;;;9183934;19;20090;-66
2022/07/21 11:23:22;;;;;;;18.42;11.70;;;23.80;71.10;;;;;;9186678;19;20151;-66
2022/07/21 11:26:28;;;;;;;23.33;13.00;;;23.80;71.10;;;;;;9182227;19;20014;-66
2022/07/21 11:29:35;;;;;;;20.35;12.05;;;23.80;70.90;;;;;;9185545;19;20372;-66
2022/07/21 11:32:40;;;;;;;19.98;11.05;;;23.80;70.90;;;;;;9183986;19;20026;-66
2022/07/21 11:35:48;;;;;;;19.77;10.55;;;23.80;70.80;;;;;;9183926;19;20006;-65
2022/07/21 11:39:05;;;;;;;18.98;11.18;;;23.80;70.80;;;;;;9184899;19;20030;-65
2022/07/21 11:42:13;;;;;;;21.50;12.23;;;23.80;70.80;;;;;;9183925;19;20678;-66
2022/07/21 11:45:18;;;;;;;17.30;11.68;;;23.80;70.80;;;;;;9181189;19;20671;-66
2022/07/21 11:48:33;;;;;;;19.55;11.23;;;23.90;70.70;;;;;;9180387;19;20015;-67
2022/07/21 11:51:47;;;;;;;19.30;11.73;;;23.90;70.70;;;;;;9172169;19;20076;-66
2022/07/21 11:54:56;;;;;;;17.00;8.90;;;23.80;70.50;;;;;;9174460;19;20019;-66
2022/07/21 11:58:01;;;;;;;13.23;8.52;;;23.90;70.50;;;;;;9173570;19;20042;-65
2022/07/21 12:01:10;;;;;;;14.07;9.48;;;23.80;70.50;;;;;;9170381;19;20023;-66
2022/07/21 12:04:16;;;;;;;16.35;8.73;;;23.80;70.50;;;;;;9170624;19;20032;-66
2022/07/21 12:07:28;;;;;;;13.35;9.32;;;23.80;70.50;;;;;;9169211;19;20721;-65
2022/07/21 12:10:33;;;;;;;13.77;8.95;;;23.80;70.50;;;;;;9173639;19;20566;-69
2022/07/21 12:13:54;;;;;;;13.20;7.13;;;23.80;70.50;;;;;;9173158;19;20015;-66
2022/07/21 12:16:59;;;;;;;9.07;6.65;;;23.70;70.80;;;;;;9173619;19;20468;-66
2022/07/21 12:20:07;;;;;;;6.50;4.38;;;23.70;70.70;;;;;;9171525;19;20838;-66
2022/07/21 12:23:24;;;;;;;3.55;2.38;;;23.70;70.90;;;;;;9172227;19;20018;-66
2022/07/21 12:26:30;;;;;;;2.55;2.00;;;23.60;71.50;;;;;;9169197;19;20515;-65
2022/07/21 12:29:38;;;;;;;4.00;2.20;;;23.60;70.90;;;;;;9172048;19;20019;-65
2022/07/21 12:32:47;;;;;;;2.65;2.08;;;23.50;70.90;;;;;;9173025;19;20026;-65
2022/07/21 12:36:01;;;;;;;2.40;2.03;;;23.50;71.10;;;;;;9171970;19;20068;-66
2022/07/21 12:39:55;;;;;;;;;;;23.40;71.20;;;;;;9173687;19;20026;-67
2022/07/21 12:42:44;;;;;;;6.53;1.83;;;23.30;71.00;;;;;;9173681;19;19918;-65
2022/07/21 12:45:56;;;;;;;2.58;2.03;;;23.30;71.20;;;;;;9174576;19;20029;-65
2022/07/21 12:49:06;;;;;;;2.63;2.15;;;23.30;71.40;;;;;;9170158;19;20086;-68
2022/07/21 12:52:16;;;;;;;2.75;2.50;;;23.20;71.40;;;;;;9171065;19;20064;-67
2022/07/21 12:55:24;;;;;;;2.80;2.33;;;23.20;71.40;;;;;;9170554;19;20483;-66
2022/07/21 12:58:30;;;;;;;3.42;2.60;;;23.10;71.60;;;;;;9171263;19;20459;-66
2022/07/21 13:01:36;;;;;;;2.95;2.65;;;23.10;71.70;;;;;;9170770;19;20011;-65
2022/07/21 13:04:41;;;;;;;3.65;2.78;;;23.10;71.90;;;;;;9172117;19;20025;-67
2022/07/21 13:07:46;;;;;;;3.97;3.10;;;23.10;71.90;;;;;;9163919;19;20476;-64
2022/07/21 13:10:54;;;;;;;3.58;2.97;;;23.00;72.00;;;;;;9170936;19;20759;-65
2022/07/21 13:14:03;;;;;;;3.78;3.10;;;23.00;72.10;;;;;;9168338;19;20029;-66
2022/07/21 13:17:09;;;;;;;3.55;3.00;;;23.00;72.10;;;;;;9170800;19;20022;-66
2022/07/21 13:20:15;;;;;;;5.57;2.72;;;23.00;72.10;;;;;;9168161;19;20010;-66
2022/07/21 13:23:22;;;;;;;4.53;3.47;;;23.00;72.20;;;;;;9170058;19;20015;-66
2022/07/21 13:26:29;;;;;;;3.97;3.53;;;23.00;72.20;;;;;;9168841;19;20050;-66
2022/07/21 13:29:36;;;;;;;4.53;3.33;;;23.00;72.20;;;;;;9169358;19;20014;-66
2022/07/21 13:32:41;;;;;;;5.07;3.55;;;23.00;72.20;;;;;;9167717;19;20018;-66
2022/07/21 13:35:47;;;;;;;4.35;3.03;;;23.00;72.20;;;;;;9168324;19;20050;-66
2022/07/21 13:38:52;;;;;;;5.47;3.67;;;23.00;72.20;;;;;;9169049;19;20051;-69
2022/07/21 13:42:19;;;;;;;4.47;3.38;;;23.00;72.30;;;;;;9170867;19;20058;-67
2022/07/21 13:45:44;;;;;;;5.80;3.67;;;23.00;72.30;;;;;;9166458;19;20396;-67
2022/07/21 13:48:50;;;;;;;4.25;3.50;;;23.00;72.20;;;;;;9171227;19;20362;-68
2022/07/21 13:51:56;;;;;;;6.30;3.60;;;23.00;72.30;;;;;;9168413;19;20288;-67
2022/07/21 13:55:01;;;;;;;5.60;4.03;;;23.00;72.40;;;;;;9167986;19;20103;-66
2022/07/21 13:58:09;;;;;;;7.22;3.63;;;23.10;73.00;;;;;;9166264;19;20547;-66
2022/07/21 14:01:15;;;;;;;5.97;3.70;;;23.10;72.30;;;;;;9166542;19;20033;-66
2022/07/21 14:04:21;;;;;;;5.05;3.15;;;23.10;72.20;;;;;;9166715;19;20014;-67
2022/07/21 14:07:27;;;;;;;4.07;2.60;;;23.20;72.20;;;;;;9160663;19;20023;-67
2022/07/21 14:10:33;;;;;;;5.03;3.03;;;23.20;72.10;;;;;;9168404;19;20018;-68
2022/07/21 14:13:40;;;;;;;3.72;2.90;;;23.20;71.90;;;;;;9165505;19;20033;-66
2022/07/21 14:16:48;;;;;;;4.43;3.15;;;23.20;71.80;;;;;;9165804;19;20018;-67
2022/07/21 14:19:54;;;;;;;4.82;3.40;;;23.20;71.80;;;;;;9167472;19;20018;-66
2022/07/21 14:22:59;;;;;;;4.93;3.38;;;23.20;71.80;;;;;;9167755;19;20022;-65
2022/07/21 14:26:05;;;;;;;5.85;3.55;;;23.20;71.70;;;;;;9166917;19;20018;-66
2022/07/21 14:29:12;;;;;;;5.45;3.50;;;23.30;71.70;;;;;;9172868;19;20447;-65
2022/07/21 14:32:21;;;;;;;5.35;3.85;;;23.30;71.70;;;;;;9173347;19;20021;-65
2022/07/21 14:35:28;;;;;;;4.32;3.75;;;23.30;71.70;;;;;;9179461;19;20639;-67
2022/07/21 14:38:33;;;;;;;4.95;3.60;;;23.30;71.70;;;;;;9174095;19;20081;-68
2022/07/21 14:41:38;;;;;;;4.57;3.72;;;23.30;71.70;;;;;;9179431;19;20022;-67
2022/07/21 14:44:47;;;;;;;5.50;3.03;;;23.40;71.70;;;;;;9176517;19;20014;-67
2022/07/21 14:47:53;;;;;;;7.00;3.40;;;23.40;71.80;;;;;;9172711;19;20484;-67
2022/07/21 14:50:58;;;;;;;3.45;2.70;;;23.40;71.70;;;;;;9175458;19;20147;-67
2022/07/21 14:54:03;;;;;;;6.03;3.30;;;23.40;71.60;;;;;;9177452;19;20420;-66
2022/07/21 14:57:08;;;;;;;7.78;3.60;;;23.40;71.60;;;;;;9174771;19;20025;-66
2022/07/21 15:00:18;;;;;;;5.35;3.55;;;23.50;71.60;;;;;;9176953;19;20479;-65
2022/07/21 15:03:23;;;;;;;5.53;3.17;;;23.50;71.50;;;;;;9179444;19;20021;-68
2022/07/21 15:06:28;;;;;;;6.35;3.85;;;23.50;71.40;;;;;;9173380;19;20139;-65
2022/07/21 15:09:33;;;;;;;4.95;3.10;;;23.50;71.30;;;;;;9176166;19;20123;-65
2022/07/21 15:12:38;;;;;;;5.20;3.10;;;23.50;71.30;;;;;;9176342;19;20360;-65
2022/07/21 15:15:46;;;;;;;4.65;2.85;;;23.50;71.20;;;;;;9172097;19;20086;-65
2022/07/21 15:18:52;;;;;;;3.78;2.60;;;23.50;71.20;;;;;;9172720;19;20014;-66
2022/07/21 15:21:57;;;;;;;5.28;2.88;;;23.40;71.10;;;;;;9174406;19;20014;-66
2022/07/21 15:25:09;;;;;;;4.82;2.90;;;23.40;71.20;;;;;;9173824;19;20015;-65
2022/07/21 15:28:14;;;;;;;4.78;3.30;;;23.40;71.20;;;;;;9173764;19;20025;-65
2022/07/21 15:31:22;;;;;;;5.63;3.20;;;23.40;71.20;;;;;;9177094;19;20022;-66
2022/07/21 15:34:27;;;;;;;6.07;3.28;;;23.30;71.20;;;;;;9174104;19;20022;-66
2022/07/21 15:37:32;;;;;;;4.38;3.70;;;23.30;71.30;;;;;;9172364;19;20031;-66
2022/07/21 15:40:38;;;;;;;6.45;4.20;;;23.30;71.30;;;;;;9172193;19;20018;-66
2022/07/21 15:43:43;;;;;;;7.78;4.93;;;23.30;71.20;;;;;;9172481;19;20026;-65
2022/07/21 15:46:51;;;;;;;6.18;3.85;;;23.20;71.10;;;;;;9168594;19;20055;-66
2022/07/21 15:49:56;;;;;;;7.90;4.95;;;23.20;71.10;;;;;;9180231;19;20363;-65
2022/07/21 15:53:01;;;;;;;6.63;4.30;;;23.20;71.10;;;;;;9182579;19;20018;-64
2022/07/21 15:56:08;;;;;;;7.82;4.93;;;23.20;71.10;;;;;;9182683;19;20342;-65
2022/07/21 16:02:33;;;;;;;5.28;4.63;;;23.10;70.90;;;;;;9182521;19;20029;-66
2022/07/21 16:05:38;;;;;;;10.95;4.55;;;23.10;71.00;;;;;;9174747;19;20456;-65
2022/07/21 16:08:43;;;;;;;10.73;5.43;;;23.10;71.00;;;;;;9173908;19;20025;-67